| time (UTC) | temp F | wind direction | speed MPH | gust MPH | rain 1hr in | rain 24hr in | rain mn in | humidity % | barometer mb |
| 20260508060013 | 38 | 351 | 0.0 | 0.0 | 0.00 | 0.00 | 0.00 | 96 | 967.7 |
| 20260508055512 | 38 | 351 | 0.0 | 0.0 | 0.00 | 0.00 | 0.00 | 96 | 967.7 |
| 20260508055011 | 38 | 351 | 0.0 | 0.0 | 0.00 | 0.00 | 0.00 | 95 | 967.7 |
| 20260508054733 | 38 | 351 | 0.0 | 0.0 | 0.00 | 0.00 | 0.00 | 95 | 967.7 |
| 20260508054232 | 38 | 350 | 0.0 | 0.0 | 0.00 | 0.00 | 0.00 | 95 | 967.7 |
| 20260508053512 | 38 | 351 | 0.0 | 0.0 | 0.00 | 0.00 | 0.00 | 95 | 967.8 |
| 20260508053010 | 38 | 351 | 0.0 | 0.0 | 0.00 | 0.00 | 0.00 | 95 | 967.8 |
| 20260508052504 | 39 | 351 | 0.0 | 0.0 | 0.00 | 0.00 | 0.00 | 95 | 967.9 |
| 20260508051958 | 39 | 351 | 0.0 | 0.0 | 0.00 | 0.00 | 0.00 | 95 | 967.9 |
| 20260508051452 | 39 | 351 | 0.0 | 0.0 | 0.00 | 0.00 | 0.00 | 95 | 967.9 |
| 20260508050945 | 39 | 351 | 0.0 | 0.0 | 0.00 | 0.00 | 0.00 | 95 | 967.8 |
| 20260508050440 | 39 | 351 | 0.0 | 0.0 | 0.00 | 0.00 | 0.00 | 94 | 967.8 |
| 20260508045934 | 39 | 351 | 0.0 | 0.0 | 0.00 | 0.00 | 0.00 | 94 | 967.8 |
| 20260508045654 | 39 | 351 | 0.0 | 0.0 | 0.00 | 0.00 | 0.00 | 94 | 967.8 |
| 20260508044922 | 40 | 351 | 0.0 | 0.0 | 0.00 | 0.00 | 0.00 | 94 | 967.8 |
| 20260508044416 | 40 | 351 | 0.0 | 0.0 | 0.00 | 0.00 | 0.00 | 94 | 967.8 |
| 20260508043910 | 40 | 351 | 0.0 | 0.0 | 0.00 | 0.00 | 0.00 | 94 | 967.8 |
| 20260508043405 | 40 | 351 | 0.0 | 0.0 | 0.00 | 0.00 | 0.00 | 94 | 967.8 |
| 20260508042905 | 40 | 350 | 0.0 | 0.0 | 0.00 | 0.00 | 0.00 | 94 | 967.7 |
| 20260508042406 | 40 | 351 | 0.0 | 0.0 | 0.00 | 0.00 | 0.00 | 94 | 967.7 |
| 20260508041904 | 40 | 351 | 0.0 | 0.0 | 0.00 | 0.00 | 0.00 | 94 | 967.7 |
| 20260508041402 | 40 | 351 | 0.0 | 0.0 | 0.00 | 0.00 | 0.00 | 94 | 967.7 |
| 20260508040900 | 40 | 351 | 0.0 | 0.0 | 0.00 | 0.00 | 0.00 | 94 | 967.5 |
| 20260508040358 | 40 | 351 | 0.0 | 0.0 | 0.00 | 0.00 | 0.00 | 93 | 967.5 |
| 20260508035856 | 41 | 351 | 0.0 | 0.0 | 0.00 | 0.00 | 0.00 | 92 | 967.4 |
| 20260508035616 | 41 | 351 | 0.0 | 0.0 | 0.00 | 0.00 | 0.00 | 92 | 967.4 |
| 20260508035118 | 41 | 351 | 0.0 | 0.0 | 0.00 | 0.00 | 0.00 | 92 | 967.3 |
| 20260508034349 | 41 | 351 | 0.0 | 0.0 | 0.00 | 0.00 | 0.00 | 91 | 967.3 |
| 20260508033849 | 42 | 351 | 0.0 | 0.0 | 0.00 | 0.00 | 0.00 | 91 | 967.3 |
| 20260508033345 | 42 | 351 | 0.0 | 0.0 | 0.00 | 0.00 | 0.00 | 90 | 967.3 |
| 20260508032845 | 42 | 350 | 0.0 | 0.0 | 0.00 | 0.00 | 0.00 | 89 | 967.1 |
| 20260508032345 | 43 | 351 | 0.0 | 0.0 | 0.00 | 0.00 | 0.00 | 88 | 967.2 |
| 20260508031845 | 43 | 351 | 0.0 | 0.0 | 0.00 | 0.00 | 0.00 | 88 | 967.2 |
| 20260508031345 | 43 | 351 | 0.0 | 0.0 | 0.00 | 0.00 | 0.00 | 87 | 967.2 |
| 20260508030845 | 44 | 350 | 0.0 | 0.0 | 0.00 | 0.00 | 0.00 | 87 | 967.1 |
| 20260508030346 | 44 | 351 | 0.0 | 0.0 | 0.00 | 0.00 | 0.00 | 87 | 967.1 |
| 20260508025849 | 45 | 351 | 0.0 | 0.0 | 0.00 | 0.00 | 0.00 | 85 | 967.1 |
| 20260508025343 | 45 | 350 | 0.0 | 0.0 | 0.00 | 0.00 | 0.00 | 84 | 967.1 |
| 20260508024837 | 46 | 351 | 0.0 | 0.0 | 0.00 | 0.00 | 0.00 | 83 | 967.0 |
| 20260508024331 | 46 | 350 | 0.0 | 3.0 | 0.00 | 0.00 | 0.00 | 82 | 967.1 |
| 20260508023825 | 46 | 76 | 0.0 | 7.0 | 0.00 | 0.00 | 0.00 | 81 | 967.0 |
| 20260508023319 | 47 | 26 | 1.0 | 8.0 | 0.00 | 0.00 | 0.00 | 80 | 967.0 |
| 20260508022812 | 47 | 281 | 2.0 | 8.0 | 0.00 | 0.00 | 0.00 | 79 | 967.0 |
| 20260508022750 | 47 | 40 | 2.0 | 16.0 | 0.00 | 0.00 | 0.00 | 80 | 966.8 |
| 20260508021802 | 48 | 290 | 5.0 | 16.0 | 0.00 | 0.00 | 0.00 | 80 | 966.6 |
| 20260508021255 | 49 | 5 | 8.0 | 23.0 | 0.00 | 0.00 | 0.00 | 77 | 966.8 |
| 20260508020749 | 50 | 343 | 6.0 | 23.0 | 0.00 | 0.00 | 0.00 | 71 | 966.4 |
| 20260508020509 | 52 | 346 | 1.0 | 11.0 | 0.00 | 0.00 | 0.00 | 58 | 966.6 |
| 20260508015737 | 52 | 294 | 0.0 | 2.0 | 0.00 | 0.00 | 0.00 | 58 | 966.0 |
| 20260508015231 | 52 | 294 | 0.0 | 2.0 | 0.00 | 0.00 | 0.00 | 57 | 965.8 |
| 20260508014725 | 52 | 286 | 0.0 | 2.0 | 0.00 | 0.00 | 0.00 | 58 | 965.7 |
| 20260508014218 | 52 | 312 | 0.0 | 1.0 | 0.00 | 0.00 | 0.00 | 58 | 965.6 |
| 20260508013936 | 52 | 306 | 0.0 | 1.0 | 0.00 | 0.00 | 0.00 | 56 | 965.5 |
| 20260508013436 | 53 | 298 | 0.0 | 1.0 | 0.00 | 0.00 | 0.00 | 55 | 965.4 |
| 20260508012701 | 53 | 298 | 0.0 | 1.0 | 0.00 | 0.00 | 0.00 | 56 | 965.3 |
| 20260508012410 | 54 | 300 | 0.0 | 3.0 | 0.00 | 0.00 | 0.00 | 54 | 965.3 |
| 20260508011648 | 54 | 300 | 0.0 | 3.0 | 0.00 | 0.00 | 0.00 | 53 | 965.2 |
| 20260508011143 | 54 | 287 | 0.0 | 1.0 | 0.00 | 0.00 | 0.00 | 52 | 965.1 |
| 20260508010637 | 55 | 284 | 0.0 | 2.0 | 0.00 | 0.00 | 0.00 | 51 | 964.9 |
| 20260508010356 | 55 | 275 | 0.0 | 3.0 | 0.00 | 0.00 | 0.00 | 51 | 964.9 |
| 20260508005624 | 55 | 289 | 0.0 | 3.0 | 0.00 | 0.00 | 0.00 | 51 | 964.8 |
| 20260508005338 | 55 | 306 | 0.0 | 2.0 | 0.00 | 0.00 | 0.00 | 52 | 964.8 |
| 20260508004609 | 55 | 296 | 0.0 | 2.0 | 0.00 | 0.00 | 0.00 | 52 | 964.6 |
| 20260508004103 | 55 | 296 | 0.0 | 3.0 | 0.00 | 0.00 | 0.00 | 54 | 964.6 |
| 20260508003558 | 55 | 298 | 0.0 | 0.0 | 0.00 | 0.00 | 0.00 | 55 | 964.6 |
| 20260508003052 | 55 | 298 | 0.0 | 0.0 | 0.00 | 0.00 | 0.00 | 54 | 964.4 |
| 20260508002546 | 55 | 298 | 0.0 | 0.0 | 0.00 | 0.00 | 0.00 | 54 | 964.4 |
| 20260508002040 | 55 | 298 | 0.0 | 0.0 | 0.00 | 0.00 | 0.00 | 55 | 964.4 |
| 20260508001534 | 55 | 298 | 0.0 | 0.0 | 0.00 | 0.00 | 0.00 | 54 | 964.3 |
| 20260508001028 | 55 | 298 | 0.0 | 0.0 | 0.00 | 0.00 | 0.00 | 55 | 964.3 |
| 20260508000521 | 56 | 298 | 0.0 | 1.0 | 0.00 | 0.00 | 0.00 | 54 | 964.2 |
| 20260508000016 | 56 | 298 | 0.0 | 1.0 | 0.00 | 0.00 | 0.00 | 53 | 964.2 |
| 20260507235510 | 56 | 298 | 0.0 | 1.0 | 0.00 | 0.00 | 0.00 | 52 | 964.2 |
| 20260507235004 | 56 | 298 | 0.0 | 1.0 | 0.00 | 0.00 | 0.00 | 51 | 964.1 |
| 20260507234457 | 57 | 298 | 0.0 | 0.0 | 0.00 | 0.00 | 0.00 | 51 | 964.1 |
| 20260507233958 | 57 | 298 | 0.0 | 1.0 | 0.00 | 0.00 | 0.00 | 49 | 964.1 |
| 20260507233458 | 57 | 298 | 0.0 | 1.0 | 0.00 | 0.00 | 0.00 | 49 | 964.0 |
| 20260507232954 | 57 | 298 | 0.0 | 2.0 | 0.00 | 0.00 | 0.00 | 49 | 964.0 |
| 20260507232453 | 58 | 297 | 0.0 | 3.0 | 0.00 | 0.00 | 0.00 | 49 | 964.0 |
| 20260507231954 | 58 | 297 | 0.0 | 3.0 | 0.00 | 0.00 | 0.00 | 47 | 963.9 |
| 20260507231452 | 58 | 282 | 0.0 | 2.0 | 0.00 | 0.00 | 0.00 | 47 | 963.8 |
| 20260507230950 | 58 | 302 | 0.0 | 5.0 | 0.00 | 0.00 | 0.00 | 49 | 963.9 |
| 20260507230447 | 58 | 294 | 1.0 | 7.0 | 0.00 | 0.00 | 0.00 | 47 | 963.8 |
| 20260507225947 | 58 | 318 | 1.0 | 7.0 | 0.00 | 0.00 | 0.00 | 47 | 963.8 |
| 20260507225719 | 58 | 294 | 2.0 | 7.0 | 0.00 | 0.00 | 0.00 | 46 | 963.9 |
| 20260507224943 | 58 | 224 | 2.0 | 5.0 | 0.00 | 0.00 | 0.00 | 45 | 963.8 |
| 20260507224443 | 58 | 299 | 2.0 | 5.0 | 0.00 | 0.00 | 0.00 | 45 | 963.8 |
| 20260507223944 | 59 | 190 | 1.0 | 5.0 | 0.00 | 0.00 | 0.00 | 46 | 963.7 |
| 20260507223445 | 59 | 232 | 1.0 | 4.0 | 0.00 | 0.00 | 0.00 | 45 | 963.7 |
| 20260507222942 | 59 | 298 | 1.0 | 4.0 | 0.00 | 0.00 | 0.00 | 48 | 963.7 |
| 20260507222442 | 59 | 303 | 1.0 | 4.0 | 0.00 | 0.00 | 0.00 | 48 | 963.6 |
| 20260507221942 | 59 | 306 | 1.0 | 3.0 | 0.00 | 0.00 | 0.00 | 47 | 963.6 |
| 20260507221442 | 59 | 286 | 1.0 | 5.0 | 0.00 | 0.00 | 0.00 | 45 | 963.6 |
| 20260507221202 | 60 | 335 | 1.0 | 5.0 | 0.00 | 0.00 | 0.00 | 46 | 963.8 |
| 20260507220441 | 60 | 46 | 1.0 | 5.0 | 0.00 | 0.00 | 0.00 | 45 | 963.8 |
| 20260507215940 | 60 | 17 | 1.0 | 7.0 | 0.00 | 0.00 | 0.00 | 44 | 963.8 |
| 20260507215442 | 61 | 163 | 1.0 | 7.0 | 0.00 | 0.00 | 0.00 | 44 | 963.8 |
| 20260507214940 | 61 | 125 | 1.0 | 6.0 | 0.00 | 0.00 | 0.00 | 47 | 963.7 |
| 20260507214439 | 60 | 336 | 1.0 | 6.0 | 0.00 | 0.00 | 0.00 | 45 | 963.8 |
| 20260507213937 | 60 | 27 | 1.0 | 7.0 | 0.00 | 0.00 | 0.00 | 45 | 963.7 |
| 20260507213437 | 60 | 246 | 1.0 | 7.0 | 0.00 | 0.00 | 0.00 | 42 | 963.7 |
| 20260507212936 | 60 | 256 | 2.0 | 9.0 | 0.00 | 0.00 | 0.00 | 44 | 963.7 |
| 20260507212438 | 60 | 34 | 2.0 | 9.0 | 0.00 | 0.00 | 0.00 | 43 | 963.6 |
| 20260507211938 | 60 | 290 | 2.0 | 10.0 | 0.00 | 0.00 | 0.00 | 44 | 963.6 |
| 20260507211659 | 60 | 36 | 1.0 | 10.0 | 0.00 | 0.00 | 0.00 | 43 | 963.6 |
| 20260507210934 | 61 | 299 | 0.0 | 3.0 | 0.00 | 0.00 | 0.00 | 44 | 963.7 |
| 20260507210435 | 60 | 88 | 1.0 | 7.0 | 0.00 | 0.00 | 0.00 | 44 | 963.6 |
| 20260507205933 | 60 | 286 | 1.0 | 7.0 | 0.00 | 0.00 | 0.00 | 44 | 963.7 |
| 20260507205432 | 60 | 271 | 1.0 | 7.0 | 0.00 | 0.00 | 0.00 | 45 | 963.7 |
| 20260507204932 | 60 | 30 | 2.0 | 8.0 | 0.00 | 0.00 | 0.00 | 44 | 963.6 |
| 20260507204430 | 61 | 281 | 2.0 | 8.0 | 0.00 | 0.00 | 0.00 | 42 | 963.7 |
| 20260507203932 | 62 | 331 | 3.0 | 9.0 | 0.00 | 0.00 | 0.00 | 43 | 963.7 |
| 20260507203431 | 62 | 350 | 2.0 | 9.0 | 0.00 | 0.00 | 0.00 | 43 | 963.7 |
| 20260507202932 | 61 | 30 | 1.0 | 6.0 | 0.00 | 0.00 | 0.00 | 42 | 963.8 |
| 20260507202427 | 61 | 304 | 1.0 | 6.0 | 0.00 | 0.00 | 0.00 | 40 | 963.8 |
| 20260507202149 | 61 | 250 | 1.0 | 10.0 | 0.00 | 0.00 | 0.00 | 41 | 963.8 |
| 20260507201428 | 61 | 226 | 2.0 | 10.0 | 0.00 | 0.00 | 0.00 | 45 | 963.8 |
| 20260507200926 | 61 | 342 | 2.0 | 6.0 | 0.00 | 0.00 | 0.00 | 41 | 963.8 |
| 20260507200648 | 61 | 342 | 2.0 | 5.0 | 0.00 | 0.00 | 0.00 | 43 | 963.8 |
| 20260507195927 | 61 | 276 | 2.0 | 7.0 | 0.00 | 0.00 | 0.00 | 42 | 964.0 |
| 20260507195426 | 62 | 290 | 1.0 | 7.0 | 0.00 | 0.00 | 0.00 | 41 | 964.0 |
| 20260507194926 | 61 | 313 | 1.0 | 6.0 | 0.00 | 0.00 | 0.00 | 42 | 963.9 |
| 20260507194428 | 62 | 309 | 1.0 | 6.0 | 0.00 | 0.00 | 0.00 | 40 | 964.0 |
| 20260507193922 | 60 | 229 | 1.0 | 4.0 | 0.00 | 0.00 | 0.00 | 44 | 964.1 |
| 20260507193422 | 60 | 298 | 1.0 | 5.0 | 0.00 | 0.00 | 0.00 | 43 | 964.1 |
| 20260507192924 | 60 | 321 | 2.0 | 9.0 | 0.00 | 0.00 | 0.00 | 42 | 964.2 |
| 20260507192422 | 61 | 346 | 2.0 | 9.0 | 0.00 | 0.00 | 0.00 | 41 | 964.2 |
| 20260507191923 | 62 | 311 | 2.0 | 8.0 | 0.00 | 0.00 | 0.00 | 43 | 964.2 |
| 20260507191643 | 62 | 266 | 2.0 | 8.0 | 0.00 | 0.00 | 0.00 | 42 | 964.2 |
| 20260507190923 | 61 | 25 | 1.0 | 6.0 | 0.00 | 0.00 | 0.00 | 44 | 964.2 |
| 20260507190423 | 60 | 134 | 1.0 | 5.0 | 0.00 | 0.00 | 0.00 | 44 | 964.3 |
| 20260507185922 | 60 | 302 | 1.0 | 6.0 | 0.00 | 0.00 | 0.00 | 46 | 964.4 |
| 20260507185422 | 60 | 271 | 2.0 | 6.0 | 0.00 | 0.00 | 0.00 | 46 | 964.4 |
| 20260507184924 | 61 | 227 | 2.0 | 8.0 | 0.00 | 0.00 | 0.00 | 42 | 964.5 |
| 20260507184422 | 60 | 334 | 2.0 | 8.0 | 0.00 | 0.00 | 0.00 | 48 | 964.5 |
| 20260507183923 | 59 | 330 | 2.0 | 7.0 | 0.00 | 0.00 | 0.00 | 47 | 964.5 |
| 20260507183422 | 59 | 44 | 2.0 | 13.0 | 0.00 | 0.00 | 0.00 | 45 | 964.5 |
| 20260507182923 | 60 | 51 | 2.0 | 13.0 | 0.00 | 0.00 | 0.00 | 44 | 964.6 |
| 20260507182424 | 61 | 205 | 2.0 | 6.0 | 0.00 | 0.00 | 0.00 | 41 | 964.6 |
| 20260507181925 | 61 | 289 | 2.0 | 7.0 | 0.00 | 0.00 | 0.00 | 47 | 964.4 |
| 20260507181423 | 61 | 326 | 1.0 | 7.0 | 0.00 | 0.00 | 0.00 | 45 | 964.7 |
| 20260507180922 | 61 | 304 | 1.0 | 10.0 | 0.00 | 0.00 | 0.00 | 46 | 964.7 |
| 20260507180423 | 60 | 238 | 2.0 | 10.0 | 0.00 | 0.00 | 0.00 | 40 | 964.7 |
| 20260507180411 | 60 | 346 | 2.0 | 10.0 | 0.00 | 0.00 | 0.00 | 43 | 964.8 |
| 20260507175857 | 59 | 269 | 2.0 | 10.0 | 0.00 | 0.00 | 0.00 | 43 | 964.9 |
| 20260507174903 | 59 | 285 | 2.0 | 7.0 | 0.00 | 0.00 | 0.00 | 45 | 965.0 |
| 20260507174621 | 59 | 326 | 1.0 | 7.0 | 0.00 | 0.01 | 0.00 | 43 | 965.0 |
| 20260507173855 | 59 | 315 | 1.0 | 9.0 | 0.00 | 0.01 | 0.00 | 46 | 965.2 |
| 20260507173355 | 60 | 306 | 3.0 | 13.0 | 0.00 | 0.01 | 0.00 | 44 | 965.2 |
| 20260507172854 | 61 | 342 | 3.0 | 13.0 | 0.00 | 0.01 | 0.00 | 42 | 965.2 |
| 20260507172354 | 60 | 347 | 2.0 | 9.0 | 0.00 | 0.01 | 0.00 | 44 | 965.2 |
| 20260507171853 | 59 | 219 | 2.0 | 7.0 | 0.00 | 0.01 | 0.00 | 43 | 965.3 |
| 20260507171353 | 60 | 318 | 2.0 | 10.0 | 0.00 | 0.02 | 0.00 | 41 | 965.3 |
| 20260507170854 | 60 | 295 | 3.0 | 13.0 | 0.00 | 0.02 | 0.00 | 42 | 965.5 |
| 20260507170351 | 60 | 295 | 3.0 | 13.0 | 0.00 | 0.02 | 0.00 | 44 | 965.5 |
| 20260507165851 | 60 | 27 | 2.0 | 10.0 | 0.00 | 0.02 | 0.00 | 42 | 965.4 |
| 20260507165352 | 60 | 289 | 1.0 | 10.0 | 0.00 | 0.02 | 0.00 | 43 | 965.5 |
| 20260507164851 | 60 | 293 | 2.0 | 8.0 | 0.00 | 0.02 | 0.00 | 44 | 965.7 |
| 20260507164350 | 60 | 319 | 2.0 | 11.0 | 0.00 | 0.02 | 0.00 | 43 | 965.7 |
| 20260507163849 | 60 | 322 | 2.0 | 11.0 | 0.00 | 0.02 | 0.00 | 47 | 965.7 |
| 20260507163348 | 60 | 282 | 2.0 | 8.0 | 0.00 | 0.02 | 0.00 | 42 | 965.8 |
| 20260507162849 | 59 | 199 | 2.0 | 7.0 | 0.00 | 0.02 | 0.00 | 48 | 965.7 |
| 20260507162349 | 59 | 274 | 2.0 | 7.0 | 0.00 | 0.02 | 0.00 | 44 | 965.9 |
| 20260507161848 | 59 | 195 | 2.0 | 7.0 | 0.00 | 0.02 | 0.00 | 46 | 966.0 |
| 20260507161344 | 59 | 242 | 1.0 | 7.0 | 0.00 | 0.02 | 0.00 | 45 | 966.0 |
| 20260507160844 | 59 | 200 | 0.0 | 3.0 | 0.00 | 0.02 | 0.00 | 49 | 966.0 |
| 20260507160342 | 58 | 263 | 1.0 | 6.0 | 0.00 | 0.02 | 0.00 | 49 | 966.1 |
| 20260507155842 | 57 | 303 | 2.0 | 7.0 | 0.00 | 0.02 | 0.00 | 52 | 966.2 |
| 20260507155342 | 56 | 52 | 2.0 | 9.0 | 0.00 | 0.03 | 0.00 | 46 | 966.4 |
| 20260507155106 | 57 | 226 | 2.0 | 9.0 | 0.00 | 0.03 | 0.00 | 47 | 966.4 |
| 20260507154605 | 56 | 285 | 2.0 | 13.0 | 0.00 | 0.03 | 0.00 | 49 | 966.3 |
| 20260507153842 | 56 | 9 | 2.0 | 13.0 | 0.00 | 0.03 | 0.00 | 50 | 966.4 |
| 20260507153340 | 56 | 286 | 2.0 | 9.0 | 0.00 | 0.03 | 0.00 | 47 | 966.4 |
| 20260507153059 | 56 | 11 | 2.0 | 9.0 | 0.00 | 0.03 | 0.00 | 46 | 966.6 |
| 20260507152341 | 57 | 49 | 2.0 | 7.0 | 0.00 | 0.03 | 0.00 | 54 | 966.6 |
| 20260507151841 | 56 | 214 | 2.0 | 7.0 | 0.00 | 0.03 | 0.00 | 51 | 966.7 |
| 20260507151825 | 56 | 28 | 2.0 | 8.0 | 0.00 | 0.03 | 0.00 | 49 | 966.9 |
| 20260507151321 | 56 | 300 | 3.0 | 8.0 | 0.00 | 0.03 | 0.00 | 51 | 967.0 |
| 20260507150342 | 56 | 50 | 2.0 | 9.0 | 0.00 | 0.03 | 0.00 | 50 | 967.0 |
| 20260507145841 | 56 | 350 | 1.0 | 9.0 | 0.00 | 0.03 | 0.00 | 53 | 967.0 |
| 20260507145340 | 56 | 355 | 1.0 | 6.0 | 0.00 | 0.03 | 0.00 | 53 | 967.1 |
| 20260507144835 | 55 | 298 | 1.0 | 5.0 | 0.00 | 0.03 | 0.00 | 53 | 967.2 |
| 20260507144329 | 55 | 298 | 1.0 | 4.0 | 0.00 | 0.03 | 0.00 | 57 | 967.2 |
| 20260507143822 | 54 | 252 | 1.0 | 4.0 | 0.00 | 0.03 | 0.00 | 55 | 967.3 |
| 20260507143317 | 54 | 46 | 1.0 | 4.0 | 0.00 | 0.03 | 0.00 | 53 | 967.4 |
| 20260507142810 | 54 | 210 | 0.0 | 4.0 | 0.00 | 0.03 | 0.00 | 54 | 967.4 |
| 20260507142537 | 54 | 304 | 0.0 | 2.0 | 0.00 | 0.03 | 0.00 | 59 | 967.5 |
| 20260507141759 | 53 | 234 | 0.0 | 5.0 | 0.00 | 0.03 | 0.00 | 60 | 967.6 |
| 20260507141253 | 52 | 151 | 0.0 | 5.0 | 0.00 | 0.03 | 0.00 | 66 | 967.7 |
| 20260507140747 | 52 | 311 | 0.0 | 2.0 | 0.00 | 0.04 | 0.00 | 63 | 967.7 |
| 20260507140508 | 52 | 198 | 0.0 | 2.0 | 0.00 | 0.04 | 0.00 | 65 | 967.7 |
| 20260507135957 | 51 | 171 | 0.0 | 1.0 | 0.00 | 0.04 | 0.00 | 62 | 967.7 |
| 20260507135228 | 51 | 151 | 0.0 | 2.0 | 0.00 | 0.04 | 0.00 | 66 | 967.8 |
| 20260507134723 | 50 | 303 | 0.0 | 2.0 | 0.00 | 0.04 | 0.00 | 64 | 967.8 |
| 20260507134217 | 50 | 270 | 0.0 | 2.0 | 0.00 | 0.05 | 0.00 | 65 | 967.7 |
| 20260507133711 | 50 | 14 | 0.0 | 2.0 | 0.00 | 0.05 | 0.00 | 65 | 967.8 |
| 20260507133204 | 49 | 234 | 0.0 | 2.0 | 0.00 | 0.05 | 0.00 | 63 | 967.8 |
| 20260507132658 | 49 | 293 | 0.0 | 2.0 | 0.00 | 0.05 | 0.00 | 66 | 967.9 |
| 20260507132414 | 49 | 300 | 0.0 | 1.0 | 0.00 | 0.05 | 0.00 | 67 | 967.9 |
| 20260507131649 | 49 | 304 | 0.0 | 1.0 | 0.00 | 0.06 | 0.00 | 66 | 968.0 |
| 20260507131150 | 48 | 311 | 0.0 | 0.0 | 0.00 | 0.06 | 0.00 | 71 | 968.0 |
| 20260507130649 | 48 | 311 | 0.0 | 0.0 | 0.00 | 0.06 | 0.00 | 70 | 968.0 |
| 20260507130146 | 48 | 292 | 0.0 | 0.0 | 0.00 | 0.06 | 0.00 | 69 | 968.2 |
| 20260507125647 | 47 | 223 | 0.0 | 0.0 | 0.00 | 0.06 | 0.00 | 69 | 968.2 |
| 20260507125141 | 47 | 285 | 0.0 | 2.0 | 0.00 | 0.06 | 0.00 | 71 | 968.2 |
| 20260507124641 | 47 | 156 | 0.0 | 2.0 | 0.00 | 0.06 | 0.00 | 72 | 968.2 |
| 20260507124138 | 46 | 167 | 0.0 | 1.0 | 0.00 | 0.06 | 0.00 | 76 | 968.3 |
| 20260507123857 | 46 | 283 | 0.0 | 1.0 | 0.00 | 0.06 | 0.00 | 74 | 968.3 |
| 20260507123139 | 46 | 283 | 0.0 | 1.0 | 0.00 | 0.06 | 0.00 | 76 | 968.3 |
| 20260507122636 | 45 | 284 | 0.0 | 1.0 | 0.00 | 0.06 | 0.00 | 75 | 968.2 |
| 20260507122135 | 45 | 236 | 0.0 | 0.0 | 0.00 | 0.06 | 0.00 | 75 | 968.2 |
| 20260507121635 | 45 | 213 | 0.0 | 0.0 | 0.00 | 0.07 | 0.00 | 76 | 968.2 |
| 20260507121134 | 44 | 213 | 0.0 | 0.0 | 0.00 | 0.09 | 0.00 | 77 | 968.2 |
| 20260507120632 | 44 | 324 | 0.0 | 0.0 | 0.00 | 0.10 | 0.00 | 77 | 968.2 |
| 20260507120131 | 43 | 39 | 0.0 | 0.0 | 0.00 | 0.11 | 0.00 | 78 | 968.1 |
| 20260507115629 | 43 | 39 | 0.0 | 0.0 | 0.00 | 0.12 | 0.00 | 79 | 968.1 |
| 20260507115130 | 42 | 39 | 0.0 | 1.0 | 0.00 | 0.13 | 0.00 | 79 | 968.0 |
| 20260507114631 | 42 | 40 | 0.0 | 1.0 | 0.00 | 0.14 | 0.00 | 81 | 967.9 |
| 20260507114609 | 42 | 331 | 0.0 | 0.0 | 0.00 | 0.16 | 0.00 | 83 | 967.9 |
| 20260507113627 | 41 | 355 | 0.0 | 0.0 | 0.00 | 0.17 | 0.00 | 85 | 967.9 |
| 20260507113127 | 41 | 355 | 0.0 | 0.0 | 0.00 | 0.18 | 0.00 | 85 | 967.9 |
| 20260507112845 | 40 | 355 | 0.0 | 0.0 | 0.00 | 0.19 | 0.00 | 87 | 967.9 |
| 20260507112127 | 40 | 355 | 0.0 | 0.0 | 0.00 | 0.20 | 0.00 | 88 | 967.9 |
| 20260507111625 | 39 | 355 | 0.0 | 0.0 | 0.00 | 0.20 | 0.00 | 88 | 967.9 |
| 20260507111124 | 38 | 355 | 0.0 | 0.0 | 0.00 | 0.20 | 0.00 | 90 | 967.7 |
| 20260507110625 | 38 | 355 | 0.0 | 0.0 | 0.00 | 0.21 | 0.00 | 91 | 967.7 |
| 20260507110347 | 37 | 355 | 0.0 | 0.0 | 0.00 | 0.21 | 0.00 | 92 | 967.6 |
| 20260507105846 | 37 | 355 | 0.0 | 0.0 | 0.00 | 0.21 | 0.00 | 92 | 967.6 |
| 20260507105123 | 36 | 355 | 0.0 | 0.0 | 0.00 | 0.21 | 0.00 | 92 | 967.6 |
| 20260507104621 | 36 | 355 | 0.0 | 0.0 | 0.00 | 0.21 | 0.00 | 92 | 967.5 |
| 20260507104122 | 36 | 355 | 0.0 | 0.0 | 0.00 | 0.21 | 0.00 | 92 | 967.6 |
| 20260507103827 | 36 | 355 | 0.0 | 0.0 | 0.00 | 0.21 | 0.00 | 90 | 967.5 |
| 20260507103707 | 36 | 355 | 0.0 | 0.0 | 0.00 | 0.21 | 0.00 | 91 | 967.5 |
| 20260507102617 | 36 | 355 | 0.0 | 0.0 | 0.00 | 0.21 | 0.00 | 90 | 967.5 |
| 20260507102116 | 36 | 355 | 0.0 | 0.0 | 0.00 | 0.22 | 0.00 | 90 | 967.3 |
| 20260507101616 | 36 | 355 | 0.0 | 0.0 | 0.00 | 0.22 | 0.00 | 90 | 967.4 |
| 20260507101117 | 36 | 355 | 0.0 | 0.0 | 0.00 | 0.22 | 0.00 | 88 | 967.4 |
| 20260507100617 | 37 | 355 | 0.0 | 0.0 | 0.00 | 0.22 | 0.00 | 88 | 967.4 |
| 20260507100117 | 37 | 355 | 0.0 | 0.0 | 0.00 | 0.22 | 0.00 | 87 | 967.3 |
| 20260507095617 | 37 | 355 | 0.0 | 0.0 | 0.00 | 0.23 | 0.00 | 87 | 967.3 |
| 20260507095117 | 37 | 355 | 0.0 | 0.0 | 0.00 | 0.23 | 0.00 | 86 | 967.3 |
| 20260507094837 | 38 | 355 | 0.0 | 0.0 | 0.00 | 0.23 | 0.00 | 86 | 967.3 |
| 20260507094115 | 38 | 355 | 0.0 | 0.0 | 0.00 | 0.23 | 0.00 | 86 | 967.3 |
| 20260507093841 | 38 | 355 | 0.0 | 0.0 | 0.00 | 0.23 | 0.00 | 85 | 967.3 |
| 20260507093120 | 38 | 355 | 0.0 | 0.0 | 0.00 | 0.23 | 0.00 | 85 | 967.2 |
| 20260507092620 | 38 | 355 | 0.0 | 0.0 | 0.00 | 0.23 | 0.00 | 85 | 967.1 |
| 20260507092119 | 39 | 355 | 0.0 | 0.0 | 0.00 | 0.23 | 0.00 | 84 | 967.1 |
| 20260507091618 | 39 | 355 | 0.0 | 0.0 | 0.00 | 0.23 | 0.00 | 84 | 967.2 |
| 20260507091118 | 39 | 355 | 0.0 | 0.0 | 0.00 | 0.23 | 0.00 | 83 | 967.2 |
| 20260507090618 | 39 | 355 | 0.0 | 0.0 | 0.00 | 0.23 | 0.00 | 82 | 967.2 |
| 20260507090339 | 40 | 355 | 0.0 | 0.0 | 0.00 | 0.23 | 0.00 | 82 | 967.2 |
| 20260507085839 | 40 | 355 | 0.0 | 0.0 | 0.00 | 0.23 | 0.00 | 81 | 967.2 |
| 20260507085117 | 41 | 355 | 0.0 | 0.0 | 0.00 | 0.23 | 0.00 | 80 | 967.1 |
| 20260507084617 | 41 | 355 | 0.0 | 0.0 | 0.00 | 0.23 | 0.00 | 78 | 967.1 |
| 20260507084115 | 42 | 355 | 0.0 | 0.0 | 0.00 | 0.23 | 0.00 | 78 | 967.2 |
| 20260507083837 | 42 | 355 | 0.0 | 0.0 | 0.00 | 0.23 | 0.00 | 76 | 967.3 |
| 20260507083117 | 43 | 355 | 0.0 | 0.0 | 0.00 | 0.23 | 0.00 | 75 | 967.2 |
| 20260507082615 | 43 | 355 | 0.0 | 0.0 | 0.00 | 0.23 | 0.00 | 74 | 967.3 |
| 20260507082116 | 44 | 355 | 0.0 | 0.0 | 0.00 | 0.23 | 0.00 | 73 | 967.3 |
| 20260507081613 | 44 | 355 | 0.0 | 0.0 | 0.00 | 0.23 | 0.00 | 71 | 967.3 |
| 20260507081114 | 45 | 355 | 0.0 | 0.0 | 0.00 | 0.23 | 0.00 | 70 | 967.4 |
| 20260507080611 | 45 | 355 | 0.0 | 2.0 | 0.00 | 0.23 | 0.00 | 68 | 967.3 |
| 20260507080111 | 46 | 355 | 0.0 | 2.0 | 0.00 | 0.23 | 0.00 | 67 | 967.3 |
| 20260507075610 | 46 | 304 | 0.0 | 2.0 | 0.00 | 0.23 | 0.00 | 67 | 967.3 |
| 20260507075111 | 46 | 71 | 0.0 | 2.0 | 0.00 | 0.23 | 0.00 | 67 | 967.3 |
| 20260507074608 | 46 | 22 | 0.0 | 2.0 | 0.00 | 0.23 | 0.00 | 68 | 967.2 |
| 20260507074108 | 46 | 22 | 0.0 | 2.0 | 0.00 | 0.23 | 0.00 | 67 | 967.3 |
| 20260507073608 | 46 | 22 | 0.0 | 1.0 | 0.00 | 0.23 | 0.00 | 68 | 967.3 |
| 20260507073106 | 46 | 338 | 0.0 | 0.0 | 0.00 | 0.23 | 0.00 | 68 | 967.4 |
| 20260507072602 | 46 | 300 | 0.0 | 0.0 | 0.00 | 0.23 | 0.00 | 67 | 967.4 |
| 20260507072059 | 46 | 300 | 0.0 | 0.0 | 0.00 | 0.23 | 0.00 | 68 | 967.3 |
| 20260507071602 | 47 | 300 | 0.0 | 0.0 | 0.00 | 0.23 | 0.00 | 66 | 967.2 |
| 20260507071054 | 47 | 19 | 0.0 | 2.0 | 0.00 | 0.23 | 0.00 | 68 | 967.3 |
| 20260507070548 | 47 | 20 | 0.0 | 2.0 | 0.00 | 0.23 | 0.00 | 67 | 967.2 |
| 20260507070043 | 47 | 31 | 0.0 | 3.0 | 0.00 | 0.23 | 0.00 | 65 | 967.2 |
| 20260507065537 | 47 | 34 | 0.0 | 3.0 | 0.00 | 0.23 | 0.00 | 66 | 967.2 |
| 20260507065248 | 47 | 35 | 0.0 | 0.0 | 0.00 | 0.23 | 0.00 | 67 | 967.3 |
| 20260507064525 | 47 | 35 | 0.0 | 3.0 | 0.00 | 0.23 | 0.00 | 66 | 967.3 |
| 20260507064242 | 47 | 35 | 0.0 | 3.0 | 0.00 | 0.23 | 0.00 | 65 | 967.3 |
| 20260507063513 | 47 | 20 | 0.0 | 3.0 | 0.00 | 0.23 | 0.00 | 65 | 967.3 |
| 20260507063007 | 47 | 320 | 0.0 | 2.0 | 0.00 | 0.23 | 0.00 | 66 | 967.3 |
| 20260507062723 | 47 | 35 | 0.0 | 0.0 | 0.00 | 0.23 | 0.00 | 66 | 967.4 |
| 20260507062438 | 47 | 35 | 0.0 | 1.0 | 0.00 | 0.23 | 0.00 | 66 | 967.5 |
| 20260507061449 | 47 | 35 | 0.0 | 1.0 | 0.00 | 0.23 | 0.00 | 65 | 967.5 |
| 20260507060942 | 47 | 34 | 0.0 | 1.0 | 0.00 | 0.23 | 0.00 | 65 | 967.6 |
| 20260507060702 | 47 | 22 | 0.0 | 5.0 | 0.00 | 0.23 | 0.00 | 65 | 967.7 |